Terminal Aerodrome Forecast
Issued by NWS

Home | Current Version | Previous Version | Text Only | Print | Product List | Glossary On
Versions: 1 2 3 4 5 6 7 8 9 10 11 12 13 14 15 16 17 18 19 20 21 22
224
FTUS41 KGYX 242000 AAB
TAFRKD
TAF AMD
KRKD 242000Z 2420/2518 20012G19KT 2SM -SN BR OVC005
      TEMPO 2420/2423 3/4SM -SHSN BKN012 OVC020
     FM242300 22009G16KT 5SM -SHSN BKN015 OVC025
     FM250500 34005KT P6SM SCT020 BKN040 OVC070
     FM251200 35007KT P6SM SCT050 BKN100
      AMD LTD TO CLD VIS AND WIND=

USA.gov is the U.S. government's official web portal to all federal, state and local government web resources and services.